San Luis Obispo (SBP/KSBP)

Map

Destinations

Information

Location
San Luis Obispo, CA
Local Time
17:17 / 5:17 pm
GMT Time
00:17 / 12:17 am
Gates
3
No FAA reported delays
METAR KSBP 252356Z 31020G25KT 10SM CLR 17/11 A2999 RMK AO2 PK WND 31029/2331 SLP156 T01670106 10194 20161 58012
TAF KSBP 252333Z 2600/2624 30020G28KT P6SM SCT200 FM260400 32012G20KT P6SM SCT200 FM260600 31008KT P6SM BKN200 FM261200 32010G15KT P6SM BKN200 FM261700 32017KT P6SM BKN200 FM262000 31024G30KT P6SM BKN200